Flight Information

DEPARTURE
LAS VEGAS, NV
Elevation:
2205
Runways:
12R/30L - 5000x75 - ASPH-G
12L/30R - 4199x75 - ASPH-G
7/25 - 5005x75 - ASPH-G
Active PE Departure:
12L - 12R
Current PE ATIS:
C
Altimeter:
30.00
Remarks:
ATIS:
118.05 702-631-7125
Clearance Delivery:
124
Ground:
121.7
Tower:
125.7
DESTINATION
,
Elevation:
TPA:
1000 (est.)


6605.1 NM74° True-14° Var60° HDG

Flight Plan:
(click to file on line)

1. Type
2. Aircraft Identification
3. Aircraft Type / Special Equipment
4. True Airspeed
kts
5. Departure Airport
(ICAO code)
6. Arriving Airport
(ICAO code)
7. Cruising Altitude
ft
8. Alternate Airport
(ICAO code)
9. Route of Flight
10. Remarks


00:00:00 Departure ATIS: Destination ATIS:

Clearance Limit:
Route:
Altitude: Expect in minutes
Frequency:
Transponder: (7500 Hijack / 7600 Lost Comms / 7700 Emergency)


KVGT 101453Z 02003KT 10SM CLR 31/M05 A3000 RMK AO2 SLP144 T03061050 51023
Time: 2020-07-10T14:53:00Z
1594395755
Winds: 20 @ 3 kts
Visibility: 10.0 sm
Clouds (AGL): CLR
Temperature: 30.6 C
Dew Point: -5.0 C
Pressure: 30.0 in Hgbr


Notes:

Data extracted from FAA Digital Chart Supplement. Effective: 0901Z Thursday, May 21, 2020 to 0901Z Thursday, Jul 16, 2020
Current ATIS data is provided courtisy of PilotEdge.